sensor_id;sensor_type;location;lat;lon;timestamp;P1;durP1;ratioP1;P2;durP2;ratioP2
23680;SDS011;62915;50.832;4.462;2023-08-31T00:00:43;4.32;;;1.88;;
23680;SDS011;62915;50.832;4.462;2023-08-31T00:03:09;3.08;;;2.03;;
23680;SDS011;62915;50.832;4.462;2023-08-31T00:05:37;3.83;;;2.05;;
23680;SDS011;62915;50.832;4.462;2023-08-31T00:08:04;2.83;;;2.10;;
23680;SDS011;62915;50.832;4.462;2023-08-31T00:10:31;3.33;;;2.08;;
23680;SDS011;62915;50.832;4.462;2023-08-31T00:12:57;6.25;;;2.50;;
23680;SDS011;62915;50.832;4.462;2023-08-31T00:15:23;2.83;;;2.22;;
23680;SDS011;62915;50.832;4.462;2023-08-31T00:17:49;3.45;;;2.95;;
23680;SDS011;62915;50.832;4.462;2023-08-31T00:20:15;5.10;;;3.05;;
23680;SDS011;62915;50.832;4.462;2023-08-31T00:22:41;4.72;;;2.50;;
23680;SDS011;62915;50.832;4.462;2023-08-31T00:25:07;3.95;;;2.28;;
23680;SDS011;62915;50.832;4.462;2023-08-31T00:27:34;4.72;;;2.20;;
23680;SDS011;62915;50.832;4.462;2023-08-31T00:30:03;4.78;;;2.50;;
23680;SDS011;62915;50.832;4.462;2023-08-31T00:32:31;6.57;;;2.80;;
23680;SDS011;62915;50.832;4.462;2023-08-31T00:34:58;3.65;;;2.55;;
23680;SDS011;62915;50.832;4.462;2023-08-31T00:37:24;6.70;;;2.45;;
23680;SDS011;62915;50.832;4.462;2023-08-31T00:39:50;4.10;;;2.60;;
23680;SDS011;62915;50.832;4.462;2023-08-31T00:42:17;3.42;;;2.67;;
23680;SDS011;62915;50.832;4.462;2023-08-31T00:44:43;4.72;;;2.75;;
23680;SDS011;62915;50.832;4.462;2023-08-31T00:47:12;4.78;;;2.72;;
23680;SDS011;62915;50.832;4.462;2023-08-31T00:49:41;3.10;;;2.53;;
23680;SDS011;62915;50.832;4.462;2023-08-31T00:52:07;5.30;;;2.88;;
23680;SDS011;62915;50.832;4.462;2023-08-31T00:54:33;6.00;;;3.03;;
23680;SDS011;62915;50.832;4.462;2023-08-31T00:57:00;5.35;;;3.20;;
23680;SDS011;62915;50.832;4.462;2023-08-31T00:59:26;3.05;;;2.50;;
23680;SDS011;62915;50.832;4.462;2023-08-31T01:04:32;3.70;;;2.53;;
23680;SDS011;62915;50.832;4.462;2023-08-31T01:07:21;5.20;;;2.58;;
23680;SDS011;62915;50.832;4.462;2023-08-31T01:15:24;4.15;;;2.60;;
23680;SDS011;62915;50.832;4.462;2023-08-31T01:17:54;3.17;;;2.58;;
23680;SDS011;62915;50.832;4.462;2023-08-31T01:20:30;5.80;;;3.00;;
23680;SDS011;62915;50.832;4.462;2023-08-31T01:23:11;4.55;;;2.60;;
23680;SDS011;62915;50.832;4.462;2023-08-31T01:25:41;3.75;;;2.88;;
23680;SDS011;62915;50.832;4.462;2023-08-31T01:28:08;4.80;;;2.95;;
23680;SDS011;62915;50.832;4.462;2023-08-31T01:30:35;5.07;;;3.28;;
23680;SDS011;62915;50.832;4.462;2023-08-31T01:33:01;5.43;;;2.95;;
23680;SDS011;62915;50.832;4.462;2023-08-31T01:35:27;6.53;;;2.95;;
23680;SDS011;62915;50.832;4.462;2023-08-31T01:38:08;4.50;;;2.85;;
23680;SDS011;62915;50.832;4.462;2023-08-31T01:40:37;4.13;;;2.85;;
23680;SDS011;62915;50.832;4.462;2023-08-31T01:43:07;4.63;;;2.83;;
23680;SDS011;62915;50.832;4.462;2023-08-31T01:45:35;4.50;;;2.58;;
23680;SDS011;62915;50.832;4.462;2023-08-31T01:48:02;6.95;;;2.95;;
23680;SDS011;62915;50.832;4.462;2023-08-31T01:50:32;5.22;;;3.20;;
23680;SDS011;62915;50.832;4.462;2023-08-31T01:52:57;5.00;;;3.15;;
23680;SDS011;62915;50.832;4.462;2023-08-31T01:55:23;3.75;;;3.35;;
23680;SDS011;62915;50.832;4.462;2023-08-31T01:57:50;4.07;;;2.67;;
23680;SDS011;62915;50.832;4.462;2023-08-31T02:00:19;3.55;;;2.63;;
23680;SDS011;62915;50.832;4.462;2023-08-31T02:02:45;6.45;;;3.00;;
23680;SDS011;62915;50.832;4.462;2023-08-31T02:05:11;5.10;;;3.03;;
23680;SDS011;62915;50.832;4.462;2023-08-31T02:07:36;7.78;;;3.35;;
23680;SDS011;62915;50.832;4.462;2023-08-31T02:10:03;8.05;;;3.33;;
23680;SDS011;62915;50.832;4.462;2023-08-31T02:12:31;5.65;;;3.03;;
23680;SDS011;62915;50.832;4.462;2023-08-31T02:14:57;4.72;;;3.00;;
23680;SDS011;62915;50.832;4.462;2023-08-31T02:17:23;6.47;;;3.30;;
23680;SDS011;62915;50.832;4.462;2023-08-31T02:19:50;4.97;;;3.00;;
23680;SDS011;62915;50.832;4.462;2023-08-31T02:22:16;6.38;;;3.08;;
23680;SDS011;62915;50.832;4.462;2023-08-31T02:24:42;6.70;;;3.15;;
23680;SDS011;62915;50.832;4.462;2023-08-31T02:27:08;7.05;;;3.60;;
23680;SDS011;62915;50.832;4.462;2023-08-31T02:29:33;7.00;;;3.42;;
23680;SDS011;62915;50.832;4.462;2023-08-31T02:31:59;6.10;;;3.03;;
23680;SDS011;62915;50.832;4.462;2023-08-31T02:34:25;6.47;;;3.08;;
23680;SDS011;62915;50.832;4.462;2023-08-31T02:36:51;5.80;;;3.30;;
23680;SDS011;62915;50.832;4.462;2023-08-31T02:39:16;7.53;;;3.72;;
23680;SDS011;62915;50.832;4.462;2023-08-31T02:41:42;7.03;;;3.70;;
23680;SDS011;62915;50.832;4.462;2023-08-31T02:44:08;6.82;;;3.88;;
23680;SDS011;62915;50.832;4.462;2023-08-31T02:46:33;6.85;;;4.13;;
23680;SDS011;62915;50.832;4.462;2023-08-31T02:48:59;5.18;;;3.38;;
23680;SDS011;62915;50.832;4.462;2023-08-31T02:51:25;5.10;;;3.22;;
23680;SDS011;62915;50.832;4.462;2023-08-31T02:53:51;6.85;;;4.15;;
23680;SDS011;62915;50.832;4.462;2023-08-31T02:56:18;4.78;;;3.40;;
23680;SDS011;62915;50.832;4.462;2023-08-31T02:58:45;6.80;;;3.85;;
23680;SDS011;62915;50.832;4.462;2023-08-31T03:01:11;5.63;;;3.47;;
23680;SDS011;62915;50.832;4.462;2023-08-31T03:03:38;8.95;;;3.53;;
23680;SDS011;62915;50.832;4.462;2023-08-31T03:06:05;11.50;;;4.55;;
23680;SDS011;62915;50.832;4.462;2023-08-31T03:08:34;6.82;;;3.60;;
23680;SDS011;62915;50.832;4.462;2023-08-31T03:11:01;8.30;;;3.40;;
23680;SDS011;62915;50.832;4.462;2023-08-31T03:13:28;8.98;;;3.63;;
23680;SDS011;62915;50.832;4.462;2023-08-31T03:15:54;5.90;;;3.58;;
23680;SDS011;62915;50.832;4.462;2023-08-31T03:18:21;6.88;;;3.25;;
23680;SDS011;62915;50.832;4.462;2023-08-31T03:20:47;7.28;;;3.10;;
23680;SDS011;62915;50.832;4.462;2023-08-31T03:23:13;4.53;;;3.40;;
23680;SDS011;62915;50.832;4.462;2023-08-31T03:25:39;6.03;;;3.03;;
23680;SDS011;62915;50.832;4.462;2023-08-31T03:28:05;7.25;;;3.42;;
23680;SDS011;62915;50.832;4.462;2023-08-31T03:30:31;6.38;;;3.25;;
23680;SDS011;62915;50.832;4.462;2023-08-31T03:32:56;4.30;;;3.10;;
23680;SDS011;62915;50.832;4.462;2023-08-31T03:35:22;6.95;;;3.45;;
23680;SDS011;62915;50.832;4.462;2023-08-31T03:37:52;8.40;;;3.35;;
23680;SDS011;62915;50.832;4.462;2023-08-31T03:40:18;6.32;;;3.70;;
23680;SDS011;62915;50.832;4.462;2023-08-31T03:42:44;5.75;;;3.25;;
23680;SDS011;62915;50.832;4.462;2023-08-31T03:45:10;6.20;;;2.88;;
23680;SDS011;62915;50.832;4.462;2023-08-31T03:47:36;6.00;;;3.17;;
23680;SDS011;62915;50.832;4.462;2023-08-31T03:50:02;8.13;;;3.35;;
23680;SDS011;62915;50.832;4.462;2023-08-31T03:52:29;6.15;;;3.47;;
23680;SDS011;62915;50.832;4.462;2023-08-31T03:54:56;5.15;;;3.40;;
23680;SDS011;62915;50.832;4.462;2023-08-31T03:57:21;8.35;;;3.30;;
23680;SDS011;62915;50.832;4.462;2023-08-31T03:59:47;4.07;;;3.10;;
23680;SDS011;62915;50.832;4.462;2023-08-31T04:02:13;9.10;;;3.88;;
23680;SDS011;62915;50.832;4.462;2023-08-31T04:04:39;3.90;;;2.75;;
23680;SDS011;62915;50.832;4.462;2023-08-31T04:07:05;9.73;;;3.78;;
23680;SDS011;62915;50.832;4.462;2023-08-31T04:09:34;5.25;;;2.70;;
23680;SDS011;62915;50.832;4.462;2023-08-31T04:11:59;4.53;;;3.03;;
23680;SDS011;62915;50.832;4.462;2023-08-31T04:14:28;7.60;;;3.20;;
23680;SDS011;62915;50.832;4.462;2023-08-31T04:16:55;11.60;;;3.33;;
23680;SDS011;62915;50.832;4.462;2023-08-31T04:19:20;7.18;;;3.17;;
23680;SDS011;62915;50.832;4.462;2023-08-31T04:21:47;5.43;;;3.17;;
23680;SDS011;62915;50.832;4.462;2023-08-31T04:24:13;10.05;;;3.15;;
23680;SDS011;62915;50.832;4.462;2023-08-31T04:26:40;6.28;;;3.10;;
23680;SDS011;62915;50.832;4.462;2023-08-31T04:29:07;8.13;;;2.97;;
23680;SDS011;62915;50.832;4.462;2023-08-31T04:31:33;4.78;;;3.08;;
23680;SDS011;62915;50.832;4.462;2023-08-31T04:33:59;5.93;;;3.13;;
23680;SDS011;62915;50.832;4.462;2023-08-31T04:36:25;3.92;;;2.92;;
23680;SDS011;62915;50.832;4.462;2023-08-31T04:38:51;6.97;;;3.00;;
23680;SDS011;62915;50.832;4.462;2023-08-31T04:41:17;4.70;;;2.90;;
23680;SDS011;62915;50.832;4.462;2023-08-31T04:43:43;7.32;;;3.00;;
23680;SDS011;62915;50.832;4.462;2023-08-31T04:46:09;5.00;;;2.70;;
23680;SDS011;62915;50.832;4.462;2023-08-31T04:48:35;7.45;;;3.10;;
23680;SDS011;62915;50.832;4.462;2023-08-31T04:51:01;3.78;;;2.85;;
23680;SDS011;62915;50.832;4.462;2023-08-31T04:53:29;7.15;;;2.90;;
23680;SDS011;62915;50.832;4.462;2023-08-31T04:55:55;4.38;;;3.10;;
23680;SDS011;62915;50.832;4.462;2023-08-31T04:58:21;8.23;;;2.95;;
23680;SDS011;62915;50.832;4.462;2023-08-31T05:00:47;4.90;;;2.92;;
23680;SDS011;62915;50.832;4.462;2023-08-31T05:03:13;4.07;;;2.70;;
23680;SDS011;62915;50.832;4.462;2023-08-31T05:05:39;7.95;;;2.95;;
23680;SDS011;62915;50.832;4.462;2023-08-31T05:08:07;9.38;;;2.95;;
23680;SDS011;62915;50.832;4.462;2023-08-31T05:10:33;5.90;;;2.97;;
23680;SDS011;62915;50.832;4.462;2023-08-31T05:12:59;5.97;;;3.10;;
23680;SDS011;62915;50.832;4.462;2023-08-31T05:15:25;5.78;;;2.88;;
23680;SDS011;62915;50.832;4.462;2023-08-31T05:17:53;6.38;;;2.85;;
23680;SDS011;62915;50.832;4.462;2023-08-31T05:20:19;10.27;;;3.40;;
23680;SDS011;62915;50.832;4.462;2023-08-31T05:22:46;9.50;;;3.58;;
23680;SDS011;62915;50.832;4.462;2023-08-31T05:25:12;5.68;;;2.95;;
23680;SDS011;62915;50.832;4.462;2023-08-31T05:27:38;6.70;;;3.40;;
23680;SDS011;62915;50.832;4.462;2023-08-31T05:30:04;6.60;;;3.58;;
23680;SDS011;62915;50.832;4.462;2023-08-31T05:32:30;7.85;;;3.70;;
23680;SDS011;62915;50.832;4.462;2023-08-31T05:34:56;9.43;;;3.83;;
23680;SDS011;62915;50.832;4.462;2023-08-31T05:37:23;6.18;;;3.80;;
23680;SDS011;62915;50.832;4.462;2023-08-31T05:39:49;13.05;;;3.83;;
23680;SDS011;62915;50.832;4.462;2023-08-31T05:42:15;8.40;;;3.50;;
23680;SDS011;62915;50.832;4.462;2023-08-31T05:44:41;7.30;;;3.75;;
23680;SDS011;62915;50.832;4.462;2023-08-31T05:47:07;7.70;;;4.20;;
23680;SDS011;62915;50.832;4.462;2023-08-31T05:49:33;8.90;;;4.25;;
23680;SDS011;62915;50.832;4.462;2023-08-31T05:51:59;7.72;;;3.63;;
23680;SDS011;62915;50.832;4.462;2023-08-31T05:54:24;12.10;;;3.95;;
23680;SDS011;62915;50.832;4.462;2023-08-31T05:56:50;12.40;;;4.05;;
23680;SDS011;62915;50.832;4.462;2023-08-31T05:59:16;9.95;;;4.05;;
23680;SDS011;62915;50.832;4.462;2023-08-31T06:01:42;8.65;;;3.70;;
23680;SDS011;62915;50.832;4.462;2023-08-31T06:04:09;14.93;;;4.13;;
23680;SDS011;62915;50.832;4.462;2023-08-31T06:06:35;16.88;;;4.47;;
23680;SDS011;62915;50.832;4.462;2023-08-31T06:09:01;11.55;;;4.10;;
23680;SDS011;62915;50.832;4.462;2023-08-31T06:11:27;12.68;;;4.60;;
23680;SDS011;62915;50.832;4.462;2023-08-31T06:13:53;11.27;;;3.63;;
23680;SDS011;62915;50.832;4.462;2023-08-31T06:16:18;5.60;;;3.65;;
23680;SDS011;62915;50.832;4.462;2023-08-31T06:18:44;8.48;;;3.97;;
23680;SDS011;62915;50.832;4.462;2023-08-31T06:21:10;13.05;;;4.95;;
23680;SDS011;62915;50.832;4.462;2023-08-31T06:23:36;12.23;;;4.25;;
23680;SDS011;62915;50.832;4.462;2023-08-31T06:26:01;15.30;;;4.45;;
23680;SDS011;62915;50.832;4.462;2023-08-31T06:28:28;9.48;;;4.82;;
23680;SDS011;62915;50.832;4.462;2023-08-31T06:30:54;14.13;;;4.28;;
23680;SDS011;62915;50.832;4.462;2023-08-31T06:33:20;9.90;;;4.47;;
23680;SDS011;62915;50.832;4.462;2023-08-31T06:35:46;9.40;;;4.43;;
23680;SDS011;62915;50.832;4.462;2023-08-31T06:38:17;15.25;;;4.80;;
23680;SDS011;62915;50.832;4.462;2023-08-31T06:40:43;13.18;;;5.05;;
23680;SDS011;62915;50.832;4.462;2023-08-31T06:43:15;12.85;;;4.90;;
23680;SDS011;62915;50.832;4.462;2023-08-31T06:45:44;8.98;;;4.13;;
23680;SDS011;62915;50.832;4.462;2023-08-31T06:48:09;21.20;;;5.05;;
23680;SDS011;62915;50.832;4.462;2023-08-31T06:50:35;10.85;;;4.22;;
23680;SDS011;62915;50.832;4.462;2023-08-31T06:53:01;7.53;;;3.90;;
23680;SDS011;62915;50.832;4.462;2023-08-31T06:55:28;9.38;;;4.95;;
23680;SDS011;62915;50.832;4.462;2023-08-31T06:57:53;14.50;;;5.22;;
23680;SDS011;62915;50.832;4.462;2023-08-31T07:00:19;18.88;;;4.85;;
23680;SDS011;62915;50.832;4.462;2023-08-31T07:02:45;11.57;;;4.93;;
23680;SDS011;62915;50.832;4.462;2023-08-31T07:05:11;19.02;;;5.22;;
23680;SDS011;62915;50.832;4.462;2023-08-31T07:07:37;16.23;;;4.53;;
23680;SDS011;62915;50.832;4.462;2023-08-31T07:10:02;14.20;;;4.72;;
23680;SDS011;62915;50.832;4.462;2023-08-31T07:12:31;13.20;;;4.72;;
23680;SDS011;62915;50.832;4.462;2023-08-31T07:14:57;12.63;;;4.95;;
23680;SDS011;62915;50.832;4.462;2023-08-31T07:17:23;11.88;;;4.47;;
23680;SDS011;62915;50.832;4.462;2023-08-31T07:19:48;8.30;;;4.18;;
23680;SDS011;62915;50.832;4.462;2023-08-31T07:22:14;10.65;;;4.80;;
23680;SDS011;62915;50.832;4.462;2023-08-31T07:24:40;17.77;;;4.70;;
23680;SDS011;62915;50.832;4.462;2023-08-31T07:27:06;35.47;;;9.02;;
23680;SDS011;62915;50.832;4.462;2023-08-31T07:29:32;14.10;;;4.95;;
23680;SDS011;62915;50.832;4.462;2023-08-31T07:31:58;18.13;;;5.35;;
23680;SDS011;62915;50.832;4.462;2023-08-31T07:34:24;12.15;;;5.00;;
23680;SDS011;62915;50.832;4.462;2023-08-31T07:36:52;14.68;;;4.65;;
23680;SDS011;62915;50.832;4.462;2023-08-31T07:39:17;14.40;;;4.57;;
23680;SDS011;62915;50.832;4.462;2023-08-31T07:41:43;15.15;;;5.38;;
23680;SDS011;62915;50.832;4.462;2023-08-31T07:44:09;17.48;;;5.63;;
23680;SDS011;62915;50.832;4.462;2023-08-31T07:46:35;12.02;;;5.18;;
23680;SDS011;62915;50.832;4.462;2023-08-31T07:49:01;14.32;;;4.97;;
23680;SDS011;62915;50.832;4.462;2023-08-31T07:51:28;15.10;;;4.75;;
23680;SDS011;62915;50.832;4.462;2023-08-31T07:53:53;13.00;;;5.57;;
23680;SDS011;62915;50.832;4.462;2023-08-31T07:56:19;12.30;;;5.30;;
23680;SDS011;62915;50.832;4.462;2023-08-31T07:58:45;13.30;;;4.63;;
23680;SDS011;62915;50.832;4.462;2023-08-31T08:01:11;17.52;;;5.22;;
23680;SDS011;62915;50.832;4.462;2023-08-31T08:03:36;15.48;;;4.45;;
23680;SDS011;62915;50.832;4.462;2023-08-31T08:06:02;12.60;;;5.07;;
23680;SDS011;62915;50.832;4.462;2023-08-31T08:08:28;15.50;;;4.60;;
23680;SDS011;62915;50.832;4.462;2023-08-31T08:10:54;15.45;;;5.10;;
23680;SDS011;62915;50.832;4.462;2023-08-31T08:13:20;12.43;;;4.53;;
23680;SDS011;62915;50.832;4.462;2023-08-31T08:15:46;11.77;;;4.78;;
23680;SDS011;62915;50.832;4.462;2023-08-31T08:18:12;9.85;;;4.10;;
23680;SDS011;62915;50.832;4.462;2023-08-31T08:20:38;13.40;;;4.78;;
23680;SDS011;62915;50.832;4.462;2023-08-31T08:23:05;12.20;;;4.68;;
23680;SDS011;62915;50.832;4.462;2023-08-31T08:25:32;11.43;;;4.80;;
23680;SDS011;62915;50.832;4.462;2023-08-31T08:27:58;12.20;;;4.82;;
23680;SDS011;62915;50.832;4.462;2023-08-31T08:30:23;9.68;;;4.55;;
23680;SDS011;62915;50.832;4.462;2023-08-31T08:32:49;8.57;;;4.43;;
23680;SDS011;62915;50.832;4.462;2023-08-31T08:35:15;16.85;;;4.57;;
23680;SDS011;62915;50.832;4.462;2023-08-31T08:37:41;13.93;;;4.78;;
23680;SDS011;62915;50.832;4.462;2023-08-31T08:40:06;8.82;;;4.28;;
23680;SDS011;62915;50.832;4.462;2023-08-31T08:42:33;13.10;;;5.28;;
23680;SDS011;62915;50.832;4.462;2023-08-31T08:45:16;11.85;;;4.28;;
23680;SDS011;62915;50.832;4.462;2023-08-31T08:47:45;11.77;;;4.18;;
23680;SDS011;62915;50.832;4.462;2023-08-31T08:50:12;8.10;;;4.03;;
23680;SDS011;62915;50.832;4.462;2023-08-31T08:52:41;11.95;;;3.92;;
23680;SDS011;62915;50.832;4.462;2023-08-31T08:55:08;8.75;;;3.97;;
23680;SDS011;62915;50.832;4.462;2023-08-31T08:57:34;9.77;;;3.72;;
23680;SDS011;62915;50.832;4.462;2023-08-31T09:00:00;9.55;;;4.03;;
23680;SDS011;62915;50.832;4.462;2023-08-31T09:02:28;9.52;;;3.90;;
23680;SDS011;62915;50.832;4.462;2023-08-31T09:04:53;10.20;;;3.60;;
23680;SDS011;62915;50.832;4.462;2023-08-31T09:07:23;7.72;;;3.65;;
23680;SDS011;62915;50.832;4.462;2023-08-31T09:09:50;10.60;;;4.32;;
23680;SDS011;62915;50.832;4.462;2023-08-31T09:12:17;8.48;;;4.00;;
23680;SDS011;62915;50.832;4.462;2023-08-31T09:14:43;7.03;;;4.00;;
23680;SDS011;62915;50.832;4.462;2023-08-31T09:17:09;11.65;;;4.45;;
23680;SDS011;62915;50.832;4.462;2023-08-31T09:19:36;9.18;;;3.85;;
23680;SDS011;62915;50.832;4.462;2023-08-31T09:22:01;7.75;;;3.45;;
23680;SDS011;62915;50.832;4.462;2023-08-31T09:24:27;8.93;;;3.67;;
23680;SDS011;62915;50.832;4.462;2023-08-31T09:26:55;10.55;;;3.60;;
23680;SDS011;62915;50.832;4.462;2023-08-31T09:29:22;10.13;;;3.50;;
23680;SDS011;62915;50.832;4.462;2023-08-31T09:31:48;10.95;;;3.65;;
23680;SDS011;62915;50.832;4.462;2023-08-31T09:34:15;10.80;;;3.72;;
23680;SDS011;62915;50.832;4.462;2023-08-31T09:36:42;10.68;;;4.20;;
23680;SDS011;62915;50.832;4.462;2023-08-31T09:39:08;9.15;;;4.03;;
23680;SDS011;62915;50.832;4.462;2023-08-31T09:41:41;10.48;;;4.10;;
23680;SDS011;62915;50.832;4.462;2023-08-31T09:44:18;9.48;;;3.90;;
23680;SDS011;62915;50.832;4.462;2023-08-31T09:46:45;13.68;;;4.05;;
23680;SDS011;62915;50.832;4.462;2023-08-31T09:49:15;12.52;;;3.83;;
23680;SDS011;62915;50.832;4.462;2023-08-31T09:51:44;7.82;;;4.10;;
23680;SDS011;62915;50.832;4.462;2023-08-31T09:54:17;9.18;;;3.38;;
23680;SDS011;62915;50.832;4.462;2023-08-31T09:56:51;10.20;;;3.35;;
23680;SDS011;62915;50.832;4.462;2023-08-31T09:59:21;10.05;;;3.58;;
23680;SDS011;62915;50.832;4.462;2023-08-31T10:01:47;8.68;;;3.60;;
23680;SDS011;62915;50.832;4.462;2023-08-31T10:04:13;8.63;;;3.85;;
23680;SDS011;62915;50.832;4.462;2023-08-31T10:06:40;12.85;;;4.05;;
23680;SDS011;62915;50.832;4.462;2023-08-31T10:09:08;6.88;;;3.40;;
23680;SDS011;62915;50.832;4.462;2023-08-31T10:11:40;9.02;;;3.28;;
23680;SDS011;62915;50.832;4.462;2023-08-31T10:14:07;10.15;;;3.03;;
23680;SDS011;62915;50.832;4.462;2023-08-31T10:16:35;7.50;;;2.80;;
23680;SDS011;62915;50.832;4.462;2023-08-31T10:19:04;9.35;;;2.90;;
23680;SDS011;62915;50.832;4.462;2023-08-31T10:21:29;14.95;;;3.05;;
23680;SDS011;62915;50.832;4.462;2023-08-31T10:23:55;12.35;;;2.90;;
23680;SDS011;62915;50.832;4.462;2023-08-31T10:26:28;7.32;;;2.60;;
23680;SDS011;62915;50.832;4.462;2023-08-31T10:28:55;8.32;;;2.78;;
23680;SDS011;62915;50.832;4.462;2023-08-31T10:31:22;7.38;;;2.90;;
23680;SDS011;62915;50.832;4.462;2023-08-31T10:36:42;5.18;;;2.70;;
23680;SDS011;62915;50.832;4.462;2023-08-31T10:39:12;13.82;;;3.30;;
23680;SDS011;62915;50.832;4.462;2023-08-31T10:41:56;8.95;;;2.88;;
23680;SDS011;62915;50.832;4.462;2023-08-31T10:44:26;7.88;;;2.28;;
23680;SDS011;62915;50.832;4.462;2023-08-31T10:46:53;5.80;;;2.47;;
23680;SDS011;62915;50.832;4.462;2023-08-31T10:49:23;10.38;;;3.03;;
23680;SDS011;62915;50.832;4.462;2023-08-31T10:54:26;8.32;;;2.65;;
23680;SDS011;62915;50.832;4.462;2023-08-31T10:59:49;6.03;;;2.50;;
23680;SDS011;62915;50.832;4.462;2023-08-31T11:05:20;6.45;;;2.38;;
23680;SDS011;62915;50.832;4.462;2023-08-31T11:07:46;9.45;;;3.47;;
23680;SDS011;62915;50.832;4.462;2023-08-31T11:10:17;11.20;;;2.80;;
23680;SDS011;62915;50.832;4.462;2023-08-31T11:12:53;8.80;;;2.60;;
23680;SDS011;62915;50.832;4.462;2023-08-31T11:15:20;5.57;;;2.20;;
23680;SDS011;62915;50.832;4.462;2023-08-31T11:17:50;8.43;;;2.55;;
23680;SDS011;62915;50.832;4.462;2023-08-31T11:20:19;7.68;;;3.00;;
23680;SDS011;62915;50.832;4.462;2023-08-31T11:22:46;12.77;;;2.97;;
23680;SDS011;62915;50.832;4.462;2023-08-31T11:25:14;7.05;;;2.53;;
23680;SDS011;62915;50.832;4.462;2023-08-31T11:27:41;9.98;;;2.65;;
23680;SDS011;62915;50.832;4.462;2023-08-31T11:30:17;8.60;;;2.63;;
23680;SDS011;62915;50.832;4.462;2023-08-31T11:32:47;8.55;;;2.63;;
23680;SDS011;62915;50.832;4.462;2023-08-31T11:35:14;6.00;;;2.20;;
23680;SDS011;62915;50.832;4.462;2023-08-31T11:37:43;9.10;;;2.35;;
23680;SDS011;62915;50.832;4.462;2023-08-31T11:40:11;10.23;;;2.60;;
23680;SDS011;62915;50.832;4.462;2023-08-31T11:42:39;7.70;;;2.10;;
23680;SDS011;62915;50.832;4.462;2023-08-31T11:45:06;13.43;;;2.35;;
23680;SDS011;62915;50.832;4.462;2023-08-31T11:47:32;6.07;;;2.17;;
23680;SDS011;62915;50.832;4.462;2023-08-31T11:49:59;6.25;;;2.17;;
23680;SDS011;62915;50.832;4.462;2023-08-31T11:52:26;7.03;;;2.47;;
23680;SDS011;62915;50.832;4.462;2023-08-31T11:54:53;6.97;;;2.10;;
23680;SDS011;62915;50.832;4.462;2023-08-31T11:57:19;8.65;;;2.45;;
23680;SDS011;62915;50.832;4.462;2023-08-31T11:59:50;8.07;;;2.45;;
23680;SDS011;62915;50.832;4.462;2023-08-31T12:02:18;6.50;;;1.77;;
23680;SDS011;62915;50.832;4.462;2023-08-31T12:04:45;6.18;;;2.05;;
23680;SDS011;62915;50.832;4.462;2023-08-31T12:07:11;8.13;;;2.20;;
23680;SDS011;62915;50.832;4.462;2023-08-31T12:09:44;4.43;;;2.22;;
23680;SDS011;62915;50.832;4.462;2023-08-31T12:12:11;7.25;;;2.10;;
23680;SDS011;62915;50.832;4.462;2023-08-31T12:14:40;6.38;;;2.17;;
23680;SDS011;62915;50.832;4.462;2023-08-31T12:17:06;7.75;;;2.45;;
23680;SDS011;62915;50.832;4.462;2023-08-31T12:19:35;8.23;;;2.25;;
23680;SDS011;62915;50.832;4.462;2023-08-31T12:22:02;7.80;;;2.40;;
23680;SDS011;62915;50.832;4.462;2023-08-31T12:24:29;8.00;;;2.42;;
23680;SDS011;62915;50.832;4.462;2023-08-31T12:26:56;8.30;;;2.17;;
23680;SDS011;62915;50.832;4.462;2023-08-31T12:29:22;6.70;;;2.13;;
23680;SDS011;62915;50.832;4.462;2023-08-31T12:31:48;9.05;;;2.53;;
23680;SDS011;62915;50.832;4.462;2023-08-31T12:34:15;9.90;;;2.17;;
23680;SDS011;62915;50.832;4.462;2023-08-31T12:36:41;10.98;;;1.98;;
23680;SDS011;62915;50.832;4.462;2023-08-31T12:39:07;9.40;;;2.13;;
23680;SDS011;62915;50.832;4.462;2023-08-31T12:41:37;8.00;;;1.90;;
23680;SDS011;62915;50.832;4.462;2023-08-31T12:44:04;5.88;;;2.00;;
23680;SDS011;62915;50.832;4.462;2023-08-31T12:46:30;6.15;;;1.95;;
23680;SDS011;62915;50.832;4.462;2023-08-31T12:48:56;10.00;;;1.83;;
23680;SDS011;62915;50.832;4.462;2023-08-31T12:51:22;6.03;;;2.22;;
23680;SDS011;62915;50.832;4.462;2023-08-31T12:53:50;5.85;;;2.10;;
23680;SDS011;62915;50.832;4.462;2023-08-31T12:56:16;8.82;;;1.95;;
23680;SDS011;62915;50.832;4.462;2023-08-31T12:58:49;6.30;;;2.10;;
23680;SDS011;62915;50.832;4.462;2023-08-31T13:01:16;5.40;;;1.88;;
23680;SDS011;62915;50.832;4.462;2023-08-31T13:03:43;7.88;;;2.40;;
23680;SDS011;62915;50.832;4.462;2023-08-31T13:06:09;5.18;;;1.85;;
23680;SDS011;62915;50.832;4.462;2023-08-31T13:08:34;5.93;;;2.15;;
23680;SDS011;62915;50.832;4.462;2023-08-31T13:11:00;6.32;;;2.42;;
23680;SDS011;62915;50.832;4.462;2023-08-31T13:13:27;7.43;;;1.85;;
23680;SDS011;62915;50.832;4.462;2023-08-31T13:15:53;5.45;;;1.83;;
23680;SDS011;62915;50.832;4.462;2023-08-31T13:18:20;8.75;;;1.95;;
23680;SDS011;62915;50.832;4.462;2023-08-31T13:20:52;4.88;;;2.00;;
23680;SDS011;62915;50.832;4.462;2023-08-31T13:23:19;7.20;;;1.97;;
23680;SDS011;62915;50.832;4.462;2023-08-31T13:25:46;7.15;;;2.10;;
23680;SDS011;62915;50.832;4.462;2023-08-31T13:28:12;6.28;;;2.00;;
23680;SDS011;62915;50.832;4.462;2023-08-31T13:30:38;4.88;;;1.85;;
23680;SDS011;62915;50.832;4.462;2023-08-31T13:33:06;5.82;;;1.77;;
23680;SDS011;62915;50.832;4.462;2023-08-31T13:35:32;3.70;;;1.80;;
23680;SDS011;62915;50.832;4.462;2023-08-31T13:37:58;5.13;;;1.90;;
23680;SDS011;62915;50.832;4.462;2023-08-31T13:40:24;4.85;;;2.13;;
23680;SDS011;62915;50.832;4.462;2023-08-31T13:42:53;4.93;;;1.98;;
23680;SDS011;62915;50.832;4.462;2023-08-31T13:45:26;7.45;;;1.85;;
23680;SDS011;62915;50.832;4.462;2023-08-31T13:47:52;5.85;;;2.00;;
23680;SDS011;62915;50.832;4.462;2023-08-31T13:50:18;6.82;;;2.00;;
23680;SDS011;62915;50.832;4.462;2023-08-31T13:52:45;4.88;;;1.88;;
23680;SDS011;62915;50.832;4.462;2023-08-31T13:55:11;8.75;;;2.20;;
23680;SDS011;62915;50.832;4.462;2023-08-31T13:57:42;4.38;;;2.20;;
23680;SDS011;62915;50.832;4.462;2023-08-31T14:00:08;8.00;;;2.40;;
23680;SDS011;62915;50.832;4.462;2023-08-31T14:02:38;8.52;;;2.30;;
23680;SDS011;62915;50.832;4.462;2023-08-31T14:05:04;6.68;;;2.08;;
23680;SDS011;62915;50.832;4.462;2023-08-31T14:07:35;6.45;;;2.05;;
23680;SDS011;62915;50.832;4.462;2023-08-31T14:10:02;9.73;;;2.40;;
23680;SDS011;62915;50.832;4.462;2023-08-31T14:12:30;7.63;;;2.17;;
23680;SDS011;62915;50.832;4.462;2023-08-31T14:14:57;5.90;;;2.33;;
23680;SDS011;62915;50.832;4.462;2023-08-31T14:17:28;9.20;;;2.70;;
23680;SDS011;62915;50.832;4.462;2023-08-31T14:19:53;7.93;;;2.40;;
23680;SDS011;62915;50.832;4.462;2023-08-31T14:22:19;6.68;;;2.65;;
23680;SDS011;62915;50.832;4.462;2023-08-31T14:24:45;8.10;;;2.47;;
23680;SDS011;62915;50.832;4.462;2023-08-31T14:27:10;10.25;;;2.60;;
23680;SDS011;62915;50.832;4.462;2023-08-31T14:29:36;9.27;;;2.60;;
23680;SDS011;62915;50.832;4.462;2023-08-31T14:32:02;8.70;;;2.58;;
23680;SDS011;62915;50.832;4.462;2023-08-31T14:34:29;8.30;;;2.60;;
23680;SDS011;62915;50.832;4.462;2023-08-31T14:36:56;9.52;;;2.83;;
23680;SDS011;62915;50.832;4.462;2023-08-31T14:39:24;8.48;;;2.40;;
23680;SDS011;62915;50.832;4.462;2023-08-31T14:41:54;10.20;;;2.70;;
23680;SDS011;62915;50.832;4.462;2023-08-31T14:44:23;5.63;;;2.63;;
23680;SDS011;62915;50.832;4.462;2023-08-31T14:46:51;8.27;;;2.75;;
23680;SDS011;62915;50.832;4.462;2023-08-31T14:49:17;8.77;;;3.00;;
23680;SDS011;62915;50.832;4.462;2023-08-31T14:51:43;7.28;;;2.95;;
23680;SDS011;62915;50.832;4.462;2023-08-31T14:54:09;9.30;;;3.13;;
23680;SDS011;62915;50.832;4.462;2023-08-31T14:56:35;9.82;;;2.85;;
23680;SDS011;62915;50.832;4.462;2023-08-31T14:59:01;7.97;;;2.97;;
23680;SDS011;62915;50.832;4.462;2023-08-31T15:01:27;12.43;;;3.38;;